createdAt,value
2022-08-20T00:01:43.455Z,3.89
2022-08-20T00:03:07.693Z,4.04
2022-08-20T00:04:28.862Z,4.21
2022-08-20T00:05:51.757Z,4.09
2022-08-20T00:07:15.185Z,4.26
2022-08-20T00:08:36.915Z,4.05
2022-08-20T00:09:58.319Z,4.07
2022-08-20T00:11:22.984Z,4.42
2022-08-20T00:12:46.357Z,3.87
2022-08-20T00:14:07.425Z,4.31
2022-08-20T00:15:31.926Z,3.88
2022-08-20T00:16:53.314Z,4.08
2022-08-20T00:18:14.468Z,4.01
2022-08-20T00:19:36.580Z,4.22
2022-08-20T00:20:57.979Z,3.93
2022-08-20T00:22:19.102Z,3.87
2022-08-20T00:23:42.122Z,3.99
2022-08-20T00:25:07.587Z,3.95
2022-08-20T00:26:29.813Z,4.06
2022-08-20T00:27:51.284Z,3.78
2022-08-20T00:29:12.564Z,4.03
2022-08-20T00:31:47.620Z,4.40
2022-08-20T00:33:11.645Z,3.50
2022-08-20T00:34:33.159Z,4.23
2022-08-20T00:35:55.232Z,4.12
2022-08-20T00:37:16.861Z,4.02
2022-08-20T00:38:39.326Z,4.03
2022-08-20T00:40:00.549Z,3.98
2022-08-20T00:41:24.326Z,4.37
2022-08-20T00:42:49.065Z,4.02
2022-08-20T00:44:19.127Z,4.13
2022-08-20T00:45:40.411Z,4.41
2022-08-20T00:47:02.169Z,4.02
2022-08-20T00:48:25.021Z,4.13
2022-08-20T00:49:46.493Z,3.88
2022-08-20T00:51:13.953Z,4.08
2022-08-20T00:52:35.424Z,4.47
2022-08-20T00:55:10.353Z,4.26
2022-08-20T00:56:32.245Z,4.16
2022-08-20T00:58:01.475Z,4.13
2022-08-20T00:59:21.135Z,4.09
2022-08-20T01:00:45.107Z,4.09
2022-08-20T01:02:09.549Z,4.33
2022-08-20T01:03:31.008Z,4.01
2022-08-20T01:04:52.337Z,4.03
2022-08-20T01:06:13.936Z,4.46
2022-08-20T01:07:35.218Z,4.33
2022-08-20T01:08:56.539Z,4.22
2022-08-20T01:10:22.532Z,4.35
2022-08-20T01:11:44.019Z,4.43
2022-08-20T01:14:18.705Z,4.58
2022-08-20T01:15:43.601Z,4.47
2022-08-20T01:17:06.921Z,4.29
2022-08-20T01:18:27.960Z,4.11
2022-08-20T01:19:58.821Z,4.09
2022-08-20T01:21:20.425Z,4.48
2022-08-20T01:22:57.410Z,4.25
2022-08-20T01:24:27.486Z,4.35
2022-08-20T01:25:51.286Z,4.37
2022-08-20T01:27:12.711Z,4.56
2022-08-20T01:28:46.055Z,4.27
2022-08-20T01:31:22.222Z,4.63
2022-08-20T01:32:43.549Z,4.34
2022-08-20T01:34:08.606Z,4.59
2022-08-20T01:35:33.110Z,4.45
2022-08-20T01:36:56.531Z,4.54
2022-08-20T01:38:18.227Z,4.34
2022-08-20T01:39:39.428Z,4.24
2022-08-20T01:41:28.570Z,4.38
2022-08-20T01:42:53.983Z,4.34
2022-08-20T01:44:16.712Z,4.76
2022-08-20T01:45:38.003Z,4.34
2022-08-20T01:47:17.113Z,4.78
2022-08-20T01:48:39.482Z,4.72
2022-08-20T01:51:17.956Z,4.58
2022-08-20T01:53:03.685Z,4.48
2022-08-20T01:54:24.695Z,4.58
2022-08-20T01:55:46.623Z,4.84
2022-08-20T01:57:13.443Z,4.13
2022-08-20T01:58:36.378Z,4.64
2022-08-20T01:59:57.804Z,4.57
2022-08-20T02:02:33.847Z,4.40
2022-08-20T02:03:55.536Z,4.53
2022-08-20T02:05:17.629Z,4.39
2022-08-20T02:06:56.234Z,4.71
2022-08-20T02:08:07.762Z,4.52
2022-08-20T02:09:37.293Z,5.42
2022-08-20T02:10:59.718Z,4.50
2022-08-20T02:12:21.136Z,4.67
2022-08-20T02:13:42.405Z,4.94
2022-08-20T02:15:07.221Z,4.27
2022-08-20T02:16:31.182Z,4.48
2022-08-20T02:17:53.105Z,4.73
2022-08-20T02:19:18.267Z,4.81
2022-08-20T02:20:42.215Z,4.80
2022-08-20T02:23:26.665Z,5.11
2022-08-20T02:24:48.325Z,4.69
2022-08-20T02:26:11.771Z,4.63
2022-08-20T02:27:33.220Z,4.63
2022-08-20T02:28:54.385Z,4.56
2022-08-20T02:31:36.991Z,4.34
2022-08-20T02:33:01.398Z,4.80
2022-08-20T02:34:24.514Z,4.37
2022-08-20T02:35:47.160Z,4.83
2022-08-20T02:38:29.550Z,4.67
2022-08-20T02:39:51.551Z,4.40
2022-08-20T02:41:14.229Z,4.74
2022-08-20T02:42:35.685Z,5.31
2022-08-20T02:43:57.287Z,5.00
2022-08-20T02:45:19.134Z,4.50
2022-08-20T02:46:42.326Z,4.76
2022-08-20T02:48:03.963Z,4.92
2022-08-20T02:49:25.707Z,4.84
2022-08-20T02:50:49.684Z,5.09
2022-08-20T02:52:11.155Z,4.48
2022-08-20T02:53:34.244Z,4.62
2022-08-20T02:54:56.050Z,4.63
2022-08-20T02:56:19.569Z,5.58
2022-08-20T02:57:41.126Z,6.51
2022-08-20T02:59:02.619Z,5.38
2022-08-20T03:00:28.063Z,4.69
2022-08-20T03:01:59.409Z,4.49
2022-08-20T03:03:14.671Z,4.89
2022-08-20T03:04:36.419Z,4.34
2022-08-20T03:05:57.810Z,5.07
2022-08-20T03:07:19.014Z,4.22
2022-08-20T03:08:40.726Z,4.91
2022-08-20T03:10:02.926Z,4.57
2022-08-20T03:11:24.070Z,4.79
2022-08-20T03:12:45.606Z,4.79
2022-08-20T03:14:10.896Z,5.41
2022-08-20T03:15:33.214Z,4.80
2022-08-20T03:16:54.976Z,4.32
2022-08-20T03:18:16.513Z,5.43
2022-08-20T03:19:38.032Z,4.62
2022-08-20T03:20:59.377Z,4.69
2022-08-20T03:22:20.502Z,4.66
2022-08-20T03:23:42.396Z,4.74
2022-08-20T03:25:04.653Z,4.71
2022-08-20T03:27:45.518Z,5.31
2022-08-20T03:29:07.339Z,4.93
2022-08-20T03:30:30.218Z,7.46
2022-08-20T03:31:51.642Z,6.07
2022-08-20T03:33:13.338Z,18.80
2022-08-20T03:34:34.967Z,6.28
2022-08-20T03:35:57.889Z,5.86
2022-08-20T03:37:19.374Z,6.63
2022-08-20T03:38:41.418Z,6.76
2022-08-20T03:40:04.981Z,5.19
2022-08-20T03:41:28.072Z,6.89
2022-08-20T03:42:49.702Z,6.79
2022-08-20T03:44:13.622Z,6.27
2022-08-20T03:46:55.559Z,9.08
2022-08-20T03:48:18.036Z,5.81
2022-08-20T03:49:40.619Z,6.16
2022-08-20T03:51:02.930Z,6.22
2022-08-20T03:52:25.321Z,5.61
2022-08-20T03:53:46.740Z,6.96
2022-08-20T03:55:08.754Z,7.09
2022-08-20T03:56:30.865Z,7.01
2022-08-20T03:59:06.852Z,5.26
2022-08-20T04:00:45.486Z,6.55
2022-08-20T04:02:07.478Z,7.71
2022-08-20T04:03:29.532Z,7.08
2022-08-20T04:04:52.165Z,6.09
2022-08-20T04:06:17.407Z,6.02
2022-08-20T04:07:39.123Z,5.74
2022-08-20T04:09:00.783Z,11.21
2022-08-20T04:10:22.594Z,14.89
2022-08-20T04:11:46.579Z,11.76
2022-08-20T04:13:08.037Z,9.72
2022-08-20T04:14:31.291Z,6.44
2022-08-20T04:15:55.519Z,5.48
2022-08-20T04:17:20.668Z,6.82
2022-08-20T04:19:01.659Z,6.38
2022-08-20T04:20:14.532Z,9.13
2022-08-20T04:21:36.018Z,5.84
2022-08-20T04:22:59.718Z,6.74
2022-08-20T04:25:46.540Z,6.33
2022-08-20T04:27:27.121Z,5.83
2022-08-20T04:28:49.012Z,6.17
2022-08-20T04:30:16.540Z,6.24
2022-08-20T04:31:39.009Z,5.57
2022-08-20T04:33:01.108Z,5.18
2022-08-20T04:34:22.385Z,5.09
2022-08-20T04:35:43.824Z,5.24
2022-08-20T04:37:05.549Z,4.96
2022-08-20T04:38:50.219Z,5.38
2022-08-20T04:39:56.454Z,5.04
2022-08-20T04:41:24.189Z,4.71
2022-08-20T04:42:47.571Z,5.38
2022-08-20T04:44:10.027Z,5.05
2022-08-20T04:45:35.159Z,7.26
2022-08-20T04:46:58.420Z,6.33
2022-08-20T04:49:41.263Z,4.75
2022-08-20T04:51:02.823Z,5.32
2022-08-20T04:54:16.937Z,5.38
2022-08-20T04:56:00.998Z,5.77
2022-08-20T04:59:08.189Z,5.26
2022-08-20T05:33:31.046Z,5.33
2022-08-20T05:36:31.173Z,6.15
2022-08-20T05:37:58.245Z,5.82
2022-08-20T05:41:06.556Z,6.61
2022-08-20T05:42:31.059Z,6.68
2022-08-20T05:43:55.253Z,10.05
2022-08-20T05:47:08.671Z,36.11
2022-08-20T05:49:54.035Z,90.77
2022-08-20T05:51:15.901Z,34.80
2022-08-20T05:52:40.009Z,104.33
2022-08-20T05:54:02.405Z,61.08
2022-08-20T05:58:39.075Z,9.22
2022-08-20T06:00:02.563Z,8.59
2022-08-20T06:01:28.167Z,9.22
2022-08-20T06:03:04.231Z,11.06
2022-08-20T06:06:45.813Z,8.71
2022-08-20T06:08:07.407Z,8.43
2022-08-20T06:09:31.600Z,15.23
2022-08-20T06:12:46.883Z,11.27
2022-08-20T06:14:08.947Z,9.68
2022-08-20T06:20:57.593Z,7.97
2022-08-20T06:33:24.141Z,8.06
2022-08-20T06:36:53.208Z,8.41
2022-08-20T08:49:50.576Z,7.93
2022-08-20T08:53:21.566Z,6.42
2022-08-20T08:54:47.347Z,6.10
2022-08-20T09:53:43.912Z,5.59
2022-08-20T09:55:11.032Z,5.69
2022-08-20T11:38:50.430Z,4.05
2022-08-20T12:22:35.411Z,4.72
2022-08-20T12:35:05.803Z,3.61
2022-08-20T12:36:28.675Z,3.58
2022-08-20T12:41:21.231Z,3.35
2022-08-20T12:43:05.879Z,3.52
2022-08-20T12:44:40.860Z,3.37
2022-08-20T12:46:14.507Z,3.33
2022-08-20T12:49:41.621Z,3.78
2022-08-20T12:55:28.295Z,4.66
2022-08-20T13:24:09.451Z,3.94
2022-08-20T13:39:48.588Z,4.35
2022-08-20T13:46:59.994Z,5.12
2022-08-20T13:50:21.104Z,4.85
2022-08-20T14:15:40.166Z,4.22
2022-08-20T14:17:24.930Z,4.01
2022-08-20T14:22:21.487Z,3.54
2022-08-20T14:23:48.453Z,4.00
2022-08-20T14:29:05.834Z,3.64
2022-08-20T14:30:42.523Z,5.19
2022-08-20T14:37:28.561Z,2.87
2022-08-20T14:38:50.852Z,3.44
2022-08-20T14:43:42.940Z,2.93
2022-08-20T14:48:54.556Z,2.84
2022-08-20T14:52:56.967Z,3.86
2022-08-20T15:03:24.505Z,3.02
2022-08-20T15:04:54.142Z,3.10
2022-08-20T15:11:35.275Z,2.49
2022-08-20T15:13:09.203Z,4.35
2022-08-20T15:14:42.710Z,3.91
2022-08-20T15:17:53.213Z,3.18
2022-08-20T15:19:20.032Z,2.86
2022-08-20T15:20:50.839Z,2.33
2022-08-20T15:27:55.411Z,2.70
2022-08-20T15:31:13.067Z,2.69
2022-08-20T15:32:38.549Z,2.86
2022-08-20T16:04:54.481Z,2.78
2022-08-20T16:20:49.229Z,3.83
2022-08-20T16:22:16.837Z,3.79
2022-08-20T16:23:41.396Z,2.83
2022-08-20T16:25:15.232Z,2.89
2022-08-20T16:50:17.408Z,3.23
2022-08-20T17:04:13.595Z,2.86
2022-08-20T17:05:54.244Z,2.94
2022-08-20T17:09:37.502Z,4.36
2022-08-20T17:11:09.570Z,3.60
2022-08-20T17:12:49.126Z,3.54
2022-08-20T17:14:30.224Z,4.26
2022-08-20T17:17:37.898Z,3.93
2022-08-20T18:52:48.499Z,3.69
2022-08-20T18:54:13.988Z,3.71
2022-08-20T18:55:38.289Z,4.01
2022-08-20T18:58:49.721Z,3.17
2022-08-20T19:00:17.244Z,3.98
2022-08-20T19:01:38.490Z,3.33
2022-08-20T19:03:09.843Z,4.09
2022-08-20T19:04:31.483Z,3.98
2022-08-20T19:06:12.201Z,3.97
2022-08-20T19:07:47.847Z,3.54
2022-08-20T19:09:37.269Z,3.51
2022-08-20T19:11:31.739Z,3.80
2022-08-20T19:13:29.872Z,4.03
2022-08-20T19:15:02.749Z,5.34
2022-08-20T19:16:44.459Z,3.65
2022-08-20T19:18:20.048Z,3.95
2022-08-20T19:19:42.160Z,3.87
2022-08-20T19:21:03.841Z,3.96
2022-08-20T19:22:25.192Z,3.79
2022-08-20T19:23:48.487Z,3.72
2022-08-20T19:25:32.587Z,3.96
2022-08-20T19:28:24.328Z,3.55
2022-08-20T19:29:46.985Z,3.66
2022-08-20T19:31:15.603Z,3.74
2022-08-20T19:32:41.178Z,3.62
2022-08-20T19:34:20.449Z,3.59
2022-08-20T19:35:40.550Z,3.94
2022-08-20T19:37:09.075Z,3.76
2022-08-20T19:38:28.818Z,3.63
2022-08-20T19:39:51.379Z,3.79
2022-08-20T19:41:30.938Z,3.64
2022-08-20T19:42:49.616Z,3.85
2022-08-20T19:44:12.755Z,3.63
2022-08-20T19:45:41.128Z,3.84
2022-08-20T19:47:03.218Z,3.77
2022-08-20T19:51:45.869Z,3.57
2022-08-20T19:54:30.155Z,3.54
2022-08-20T19:56:12.379Z,3.26
2022-08-20T19:57:33.582Z,3.47
2022-08-20T19:59:02.713Z,3.57
2022-08-20T20:00:28.164Z,3.75
2022-08-20T20:01:55.216Z,3.71
2022-08-20T20:03:22.321Z,3.80
2022-08-20T20:04:55.709Z,4.78
2022-08-20T20:06:16.984Z,3.69
2022-08-20T20:09:01.637Z,3.68
2022-08-20T20:11:49.239Z,3.59
2022-08-20T20:14:53.962Z,3.62
2022-08-20T20:16:19.527Z,3.84
2022-08-20T20:17:41.317Z,3.89
2022-08-20T20:19:25.329Z,3.67
2022-08-20T20:21:49.209Z,4.01
2022-08-20T20:23:18.424Z,3.71
2022-08-20T20:24:45.092Z,3.93
2022-08-20T20:26:11.586Z,3.90
2022-08-20T20:27:33.709Z,3.93
2022-08-20T20:29:10.891Z,4.06
2022-08-20T20:30:33.219Z,3.51
2022-08-20T20:31:57.233Z,3.68
2022-08-20T20:33:27.875Z,3.68
2022-08-20T20:36:17.871Z,3.77
2022-08-20T20:37:49.065Z,4.12
2022-08-20T20:39:11.211Z,3.89
2022-08-20T20:40:46.474Z,4.43
2022-08-20T20:42:12.427Z,4.18
2022-08-20T20:43:38.223Z,3.91
2022-08-20T20:44:59.788Z,4.03
2022-08-20T20:46:25.121Z,4.31
2022-08-20T20:47:50.798Z,4.08
2022-08-20T20:49:29.966Z,4.06
2022-08-20T20:50:52.749Z,3.98
2022-08-20T20:52:35.781Z,3.98
2022-08-20T20:55:27.271Z,4.18
2022-08-20T20:57:04.125Z,4.36
2022-08-20T20:58:26.881Z,4.47
2022-08-20T20:59:51.285Z,4.85
2022-08-20T21:01:14.159Z,4.34
2022-08-20T21:03:58.127Z,4.28
2022-08-20T21:05:25.295Z,4.53
2022-08-20T21:06:47.405Z,5.07
2022-08-20T21:08:08.982Z,4.72
2022-08-20T21:09:30.226Z,5.02
2022-08-20T21:10:52.725Z,5.06
2022-08-20T21:12:14.526Z,4.54
2022-08-20T21:13:36.189Z,4.54
2022-08-20T21:16:22.185Z,3.89
2022-08-20T21:17:44.242Z,3.73
2022-08-20T21:19:07.681Z,6.38
2022-08-20T21:20:31.409Z,3.97
2022-08-20T21:21:55.186Z,3.73
2022-08-20T21:23:17.221Z,3.95
2022-08-20T21:24:38.576Z,3.69
2022-08-20T21:26:01.676Z,4.31
2022-08-20T21:27:25.040Z,4.08
2022-08-20T21:28:47.182Z,4.61
2022-08-20T21:30:09.753Z,4.49
2022-08-20T21:31:33.786Z,4.42
2022-08-20T21:32:57.366Z,4.42
2022-08-20T21:34:19.056Z,4.48
2022-08-20T21:35:40.245Z,4.25
2022-08-20T21:37:01.958Z,3.87
2022-08-20T21:38:23.181Z,3.70
2022-08-20T21:39:44.830Z,3.79
2022-08-20T21:41:06.296Z,3.96
2022-08-20T21:42:29.847Z,3.37
2022-08-20T21:43:51.912Z,3.96
2022-08-20T21:45:18.770Z,4.14
2022-08-20T21:46:41.291Z,3.65
2022-08-20T21:48:03.225Z,3.72
2022-08-20T21:49:25.162Z,3.66
2022-08-20T21:50:50.180Z,3.89
2022-08-20T21:52:11.706Z,4.14
2022-08-20T21:53:33.448Z,4.24
2022-08-20T21:54:58.198Z,4.38
2022-08-20T21:56:24.337Z,4.66
2022-08-20T21:57:47.282Z,4.33
2022-08-20T21:59:09.947Z,6.66
2022-08-20T22:00:54.209Z,4.96
2022-08-20T22:02:16.904Z,4.84
2022-08-20T22:03:41.078Z,5.41
2022-08-20T22:05:05.614Z,7.01
2022-08-20T22:06:27.073Z,5.94
2022-08-20T22:07:48.989Z,11.98
2022-08-20T22:09:12.164Z,10.46
2022-08-20T22:10:33.739Z,8.93
2022-08-20T22:11:57.371Z,30.69
2022-08-20T22:13:21.850Z,12.41
2022-08-20T22:16:15.262Z,4.49
2022-08-20T22:17:39.607Z,8.61
2022-08-20T22:19:00.785Z,7.32
2022-08-20T22:20:23.539Z,5.89
2022-08-20T22:21:45.482Z,6.79
2022-08-20T22:23:10.117Z,6.04
2022-08-20T22:24:31.610Z,4.79
2022-08-20T22:25:54.398Z,4.22
2022-08-20T22:27:17.667Z,4.47
2022-08-20T22:28:38.963Z,3.63
2022-08-20T22:30:01.242Z,3.77
2022-08-20T22:31:27.094Z,3.29
2022-08-20T22:32:52.080Z,3.31
2022-08-20T22:34:14.174Z,3.94
2022-08-20T22:35:35.605Z,3.34
2022-08-20T22:37:00.338Z,6.57
2022-08-20T22:38:22.447Z,3.83
2022-08-20T22:39:43.808Z,3.64
2022-08-20T22:41:09.566Z,3.40
2022-08-20T22:42:30.112Z,3.53
2022-08-20T22:45:15.342Z,3.86
2022-08-20T22:46:41.463Z,3.92
2022-08-20T22:48:02.349Z,4.09
2022-08-20T22:49:26.313Z,3.69
2022-08-20T22:50:50.230Z,3.52
2022-08-20T22:52:12.199Z,3.48
2022-08-20T22:53:33.641Z,3.18
2022-08-20T22:54:55.172Z,3.15
2022-08-20T22:57:41.923Z,3.11
2022-08-20T22:59:03.733Z,3.36
2022-08-20T23:00:27.140Z,3.36
2022-08-20T23:01:48.952Z,3.21
2022-08-20T23:03:11.814Z,2.94
2022-08-20T23:04:33.744Z,3.12
2022-08-20T23:05:56.511Z,2.91
2022-08-20T23:07:19.306Z,3.28
2022-08-20T23:08:43.957Z,3.38
2022-08-20T23:10:05.780Z,2.90
2022-08-20T23:11:27.924Z,3.39
2022-08-20T23:14:00.765Z,3.27
2022-08-20T23:15:22.715Z,2.97
2022-08-20T23:16:49.273Z,2.88
2022-08-20T23:19:28.662Z,3.12
2022-08-20T23:20:53.499Z,3.21
2022-08-20T23:22:15.053Z,2.83
2022-08-20T23:23:36.998Z,3.49
2022-08-20T23:25:00.525Z,3.13
2022-08-20T23:26:22.887Z,3.22
2022-08-20T23:27:48.711Z,2.99
2022-08-20T23:29:10.950Z,3.17
2022-08-20T23:30:39.111Z,3.28
2022-08-20T23:32:05.358Z,3.38
2022-08-20T23:33:29.414Z,4.13
2022-08-20T23:34:51.522Z,3.37
2022-08-20T23:36:13.281Z,3.48
2022-08-20T23:37:39.448Z,3.59
2022-08-20T23:39:01.036Z,3.43
2022-08-20T23:40:28.144Z,2.85
2022-08-20T23:41:50.196Z,2.84
2022-08-20T23:43:11.240Z,3.08
2022-08-20T23:44:32.501Z,2.96
2022-08-20T23:45:56.577Z,2.81
2022-08-20T23:47:19.287Z,2.92
2022-08-20T23:48:40.462Z,2.85
2022-08-20T23:50:02.777Z,3.02
2022-08-20T23:51:24.221Z,2.67
2022-08-20T23:52:45.319Z,2.78
2022-08-20T23:54:06.753Z,2.91
2022-08-20T23:55:28.377Z,3.10
2022-08-20T23:56:50.393Z,2.75
2022-08-20T23:58:11.920Z,2.61
2022-08-20T23:59:35.253Z,2.94
